createdAt,value
2022-09-28T00:00:58.767Z,1.30
2022-09-28T00:03:28.037Z,1.07
2022-09-28T00:06:02.255Z,1.30
2022-09-28T00:08:30.329Z,1.30
2022-09-28T00:10:59.591Z,1.00
2022-09-28T00:13:28.191Z,1.77
2022-09-28T00:16:03.443Z,1.40
2022-09-28T00:18:31.731Z,1.10
2022-09-28T00:21:04.281Z,1.23
2022-09-28T00:23:32.258Z,0.97
2022-09-28T00:26:04.368Z,1.20
2022-09-28T00:28:32.352Z,1.10
2022-09-28T00:31:01.071Z,1.07
2022-09-28T00:33:29.522Z,1.10
2022-09-28T00:35:58.058Z,1.20
2022-09-28T00:38:28.332Z,1.20
2022-09-28T00:40:56.694Z,1.10
2022-09-28T00:43:26.324Z,1.00
2022-09-28T00:45:57.883Z,1.10
2022-09-28T00:48:25.953Z,1.03
2022-09-28T00:50:53.911Z,1.20
2022-09-28T00:53:23.390Z,1.00
2022-09-28T00:55:53.040Z,1.20
2022-09-28T00:58:24.995Z,1.17
2022-09-28T01:00:54.184Z,1.30
2022-09-28T01:03:22.203Z,1.20
2022-09-28T01:05:50.093Z,1.00
2022-09-28T01:08:18.869Z,1.07
2022-09-28T01:10:46.815Z,1.03
2022-09-28T01:13:18.057Z,1.07
2022-09-28T01:15:51.052Z,1.10
2022-09-28T01:18:22.173Z,0.90
2022-09-28T01:21:02.069Z,1.10
2022-09-28T01:23:48.579Z,1.00
2022-09-28T01:26:34.295Z,1.10
2022-09-28T01:29:05.524Z,1.10
2022-09-28T01:31:35.195Z,1.03
2022-09-28T01:34:05.958Z,1.00
2022-09-28T01:36:36.645Z,1.20
2022-09-28T01:39:06.665Z,1.10
2022-09-28T01:41:36.676Z,1.00
2022-09-28T01:44:05.860Z,1.00
2022-09-28T01:46:35.010Z,1.13
2022-09-28T01:49:04.828Z,1.10
2022-09-28T01:51:36.855Z,0.93
2022-09-28T01:54:07.738Z,0.90
2022-09-28T01:56:39.698Z,1.20
2022-09-28T01:59:09.192Z,1.10
2022-09-28T02:01:38.907Z,1.00
2022-09-28T02:04:09.390Z,1.07
2022-09-28T02:06:39.726Z,1.20
2022-09-28T02:09:10.762Z,1.17
2022-09-28T02:11:46.231Z,1.10
2022-09-28T02:14:15.254Z,1.00
2022-09-28T02:16:45.683Z,1.00
2022-09-28T02:19:14.760Z,1.10
2022-09-28T02:21:43.943Z,1.00
2022-09-28T02:24:21.254Z,1.20
2022-09-28T02:26:51.578Z,0.93
2022-09-28T02:29:19.522Z,1.10
2022-09-28T02:31:47.495Z,1.00
2022-09-28T02:34:15.461Z,1.10
2022-09-28T02:36:44.905Z,1.03
2022-09-28T02:39:14.855Z,0.93
2022-09-28T02:41:49.574Z,0.97
2022-09-28T02:44:30.454Z,1.00
2022-09-28T02:47:00.429Z,1.00
2022-09-28T02:49:38.159Z,1.07
2022-09-28T02:52:14.358Z,0.90
2022-09-28T02:55:00.871Z,1.07
2022-09-28T02:57:34.150Z,1.10
2022-09-28T03:00:08.146Z,1.10
2022-09-28T03:02:38.415Z,1.20
2022-09-28T03:05:13.394Z,1.00
2022-09-28T03:07:42.899Z,1.20
2022-09-28T03:10:14.229Z,1.03
2022-09-28T03:12:42.720Z,1.13
2022-09-28T03:15:14.071Z,1.10
2022-09-28T03:17:43.192Z,1.00
2022-09-28T03:20:11.824Z,1.20
2022-09-28T03:22:40.364Z,0.87
2022-09-28T03:25:09.164Z,1.00
2022-09-28T03:27:39.385Z,1.23
2022-09-28T03:30:09.482Z,1.20
2022-09-28T03:32:39.851Z,0.90
2022-09-28T03:35:09.301Z,0.90
2022-09-28T03:37:37.263Z,1.00
2022-09-28T03:40:06.860Z,1.10
2022-09-28T03:42:37.180Z,0.90
2022-09-28T03:45:06.487Z,1.20
2022-09-28T03:47:34.919Z,0.90
2022-09-28T03:50:04.603Z,0.90
2022-09-28T03:52:33.194Z,1.10
2022-09-28T03:55:01.079Z,1.03
2022-09-28T03:57:28.989Z,1.00
2022-09-28T03:59:56.861Z,1.00
2022-09-28T04:02:25.036Z,1.00
2022-09-28T04:04:52.958Z,1.00
2022-09-28T04:07:22.725Z,1.00
2022-09-28T04:09:50.622Z,1.03
2022-09-28T04:12:18.748Z,1.00
2022-09-28T04:14:46.626Z,1.10
2022-09-28T04:17:14.594Z,0.90
2022-09-28T04:19:42.725Z,1.27
2022-09-28T04:22:30.581Z,1.20
2022-09-28T04:24:58.578Z,1.20
2022-09-28T04:27:43.863Z,1.17
2022-09-28T04:30:13.669Z,1.17
2022-09-28T04:32:44.901Z,1.10
2022-09-28T04:35:12.942Z,1.20
2022-09-28T04:37:42.282Z,1.10
2022-09-28T04:40:11.211Z,0.93
2022-09-28T04:42:39.371Z,1.10
2022-09-28T04:45:08.571Z,1.00
2022-09-28T04:47:40.777Z,1.03
2022-09-28T04:50:20.501Z,1.03
2022-09-28T04:53:08.254Z,0.90
2022-09-28T04:55:36.131Z,0.97
2022-09-28T04:58:05.357Z,1.13
2022-09-28T05:00:35.480Z,1.10
2022-09-28T05:03:10.248Z,1.57
2022-09-28T05:06:06.843Z,1.00
2022-09-28T05:08:46.771Z,1.20
2022-09-28T05:11:14.983Z,0.93
2022-09-28T05:13:43.694Z,1.20
2022-09-28T05:16:13.653Z,1.00
2022-09-28T05:19:01.516Z,1.10
2022-09-28T05:21:30.768Z,1.00
2022-09-28T05:24:00.116Z,1.10
2022-09-28T05:26:28.254Z,1.10
2022-09-28T05:28:56.130Z,1.30
2022-09-28T05:31:47.103Z,1.23
2022-09-28T05:34:41.210Z,1.10
2022-09-28T05:37:13.226Z,0.93
2022-09-28T05:39:42.463Z,1.20
2022-09-28T05:42:10.596Z,1.20
2022-09-28T05:44:39.151Z,1.17
2022-09-28T05:47:07.188Z,1.13
2022-09-28T05:49:35.099Z,1.30
2022-09-28T05:52:03.449Z,1.13
2022-09-28T05:54:32.485Z,1.20
2022-09-28T05:57:03.599Z,1.20
2022-09-28T05:59:31.515Z,1.20
2022-09-28T06:01:59.460Z,1.10
2022-09-28T06:04:27.446Z,1.00
2022-09-28T06:06:55.309Z,1.40
2022-09-28T06:09:26.052Z,1.20
2022-09-28T06:11:58.614Z,1.17
2022-09-28T06:14:41.757Z,1.10
2022-09-28T06:17:09.718Z,1.10
2022-09-28T06:19:37.780Z,1.20
2022-09-28T06:22:24.112Z,1.30
2022-09-28T06:25:06.709Z,1.40
2022-09-28T06:27:34.994Z,1.30
2022-09-28T06:30:04.623Z,1.20
2022-09-28T06:32:32.672Z,1.17
2022-09-28T06:35:00.550Z,1.50
2022-09-28T06:37:28.853Z,1.60
2022-09-28T06:39:57.215Z,1.30
2022-09-28T06:42:25.910Z,1.47
2022-09-28T06:45:25.283Z,1.30
2022-09-28T06:48:09.278Z,1.30
2022-09-28T06:50:41.397Z,1.70
2022-09-28T06:53:24.168Z,1.30
2022-09-28T06:56:12.658Z,1.43
2022-09-28T06:58:40.584Z,1.40
2022-09-28T07:01:11.977Z,1.50
2022-09-28T07:03:51.479Z,1.50
2022-09-28T07:06:48.062Z,1.50
2022-09-28T07:09:49.373Z,1.57
2022-09-28T07:12:39.797Z,1.70
2022-09-28T07:15:33.744Z,1.90
2022-09-28T07:18:04.326Z,1.30
2022-09-28T07:20:38.377Z,1.40
2022-09-28T07:23:18.812Z,1.50
2022-09-28T07:26:09.149Z,1.43
2022-09-28T07:28:56.208Z,1.50
2022-09-28T07:31:40.512Z,1.30
2022-09-28T07:34:43.976Z,1.40
2022-09-28T07:37:28.252Z,1.60
2022-09-28T07:40:13.663Z,1.60
2022-09-28T07:42:41.996Z,1.40
2022-09-28T07:45:11.691Z,1.30
2022-09-28T07:47:39.590Z,1.33
2022-09-28T07:50:27.113Z,1.57
2022-09-28T07:53:01.452Z,1.50
2022-09-28T07:55:32.236Z,1.40
2022-09-28T07:58:12.027Z,1.50
2022-09-28T08:00:49.897Z,1.37
2022-09-28T08:03:18.728Z,1.30
2022-09-28T08:05:48.053Z,1.43
2022-09-28T08:08:16.003Z,1.20
2022-09-28T08:10:47.251Z,1.40
2022-09-28T08:13:41.577Z,1.10
2022-09-28T08:16:47.524Z,1.40
2022-09-28T08:19:26.288Z,1.30
2022-09-28T08:21:54.608Z,1.37
2022-09-28T08:24:24.605Z,1.10
2022-09-28T08:26:55.514Z,1.30
2022-09-28T08:29:24.582Z,1.20
2022-09-28T08:31:52.467Z,1.20
2022-09-28T08:34:36.294Z,1.37
2022-09-28T08:37:24.162Z,1.20
2022-09-28T08:40:12.098Z,1.20
2022-09-28T08:43:04.270Z,1.40
2022-09-28T08:45:55.044Z,1.40
2022-09-28T08:49:13.313Z,1.20
2022-09-28T08:52:10.734Z,1.20
2022-09-28T08:55:04.966Z,1.30
2022-09-28T08:57:41.952Z,1.20
2022-09-28T09:00:15.706Z,1.30
2022-09-28T09:02:46.795Z,1.40
2022-09-28T09:05:20.020Z,1.43
2022-09-28T09:08:20.081Z,1.30
2022-09-28T09:10:53.868Z,1.30
2022-09-28T09:13:55.394Z,1.40
2022-09-28T09:16:30.679Z,1.30
2022-09-28T09:19:17.484Z,1.30
2022-09-28T09:22:16.292Z,1.40
2022-09-28T09:24:49.842Z,1.23
2022-09-28T09:27:33.287Z,1.20
2022-09-28T09:30:06.168Z,1.40
2022-09-28T09:33:07.596Z,1.07
2022-09-28T09:35:56.506Z,1.13
2022-09-28T09:38:53.461Z,1.43
2022-09-28T09:41:46.755Z,1.27
2022-09-28T09:44:53.220Z,1.30
2022-09-28T09:47:41.121Z,1.37
2022-09-28T09:50:29.802Z,1.30
2022-09-28T09:53:01.070Z,1.50
2022-09-28T09:55:30.673Z,1.60
2022-09-28T09:58:26.712Z,1.67
2022-09-28T10:01:08.274Z,1.67
2022-09-28T10:03:56.158Z,1.50
2022-09-28T10:06:28.339Z,1.77
2022-09-28T10:09:01.825Z,1.80
2022-09-28T10:11:30.753Z,1.80
2022-09-28T10:13:59.212Z,2.00
2022-09-28T10:16:41.848Z,2.10
2022-09-28T10:19:16.012Z,2.23
2022-09-28T10:22:04.714Z,2.47
2022-09-28T10:24:34.971Z,2.50
2022-09-28T10:27:06.615Z,2.53
2022-09-28T10:29:47.003Z,2.87
2022-09-28T10:32:25.161Z,2.90
2022-09-28T10:35:14.272Z,2.57
2022-09-28T10:37:55.116Z,2.70
2022-09-28T10:40:54.165Z,2.90
2022-09-28T10:43:52.061Z,2.60
2022-09-28T10:46:23.327Z,3.40
2022-09-28T10:48:55.878Z,3.50
2022-09-28T10:51:41.159Z,2.80
2022-09-28T10:54:17.018Z,3.10
2022-09-28T10:56:51.020Z,3.10
2022-09-28T10:59:40.693Z,3.07
2022-09-28T11:02:30.383Z,3.20
2022-09-28T11:05:07.808Z,3.10
2022-09-28T11:07:46.485Z,3.10
2022-09-28T11:10:21.116Z,3.03
2022-09-28T11:12:49.531Z,2.83
2022-09-28T11:15:19.148Z,3.30
2022-09-28T11:17:47.723Z,3.20
2022-09-28T11:20:31.473Z,3.20
2022-09-28T11:23:02.596Z,3.10
2022-09-28T11:25:34.664Z,3.30
2022-09-28T11:28:04.500Z,3.23
2022-09-28T11:30:34.735Z,3.30
2022-09-28T11:33:25.750Z,3.50
2022-09-28T11:36:23.401Z,2.97
2022-09-28T11:38:55.863Z,3.10
2022-09-28T11:42:02.039Z,3.40
2022-09-28T11:44:41.247Z,3.30
2022-09-28T11:47:38.917Z,3.00
2022-09-28T11:50:09.247Z,3.53
2022-09-28T11:52:42.274Z,3.23
2022-09-28T11:55:13.397Z,3.27
2022-09-28T11:57:43.248Z,3.07
2022-09-28T12:00:14.841Z,3.67
2022-09-28T12:02:47.937Z,3.00
2022-09-28T12:05:21.310Z,3.23
2022-09-28T12:07:54.989Z,3.57
2022-09-28T12:10:45.638Z,3.03
2022-09-28T12:13:17.322Z,3.30
2022-09-28T12:16:20.099Z,3.40
2022-09-28T12:18:43.082Z,3.20
2022-09-28T12:21:18.196Z,3.20
2022-09-28T12:23:47.463Z,3.20
2022-09-28T12:26:25.102Z,3.10
2022-09-28T12:28:56.600Z,2.87
2022-09-28T12:31:26.623Z,2.90
2022-09-28T12:33:54.562Z,3.10
2022-09-28T12:36:32.790Z,2.80
2022-09-28T12:39:24.049Z,2.63
2022-09-28T12:42:10.044Z,3.43
2022-09-28T12:44:48.215Z,3.40
2022-09-28T12:47:28.128Z,3.10
2022-09-28T12:53:06.543Z,3.10
2022-09-28T12:55:45.550Z,2.90
2022-09-28T12:58:24.820Z,3.27
2022-09-28T13:00:56.602Z,2.70
2022-09-28T13:03:41.135Z,2.70
2022-09-28T13:06:37.070Z,2.77
2022-09-28T13:09:20.443Z,3.03
2022-09-28T13:12:13.062Z,3.07
2022-09-28T13:15:24.734Z,3.10
2022-09-28T13:18:00.295Z,2.97
2022-09-28T13:20:38.990Z,3.00
2022-09-28T13:23:15.500Z,2.77
2022-09-28T13:25:45.838Z,3.07
2022-09-28T13:28:16.412Z,2.70
2022-09-28T13:30:44.834Z,2.93
2022-09-28T13:33:17.484Z,3.07
2022-09-28T13:35:45.347Z,3.00
2022-09-28T13:38:32.512Z,2.90
2022-09-28T13:41:17.788Z,3.00
2022-09-28T13:44:22.146Z,2.90
2022-09-28T13:46:56.111Z,3.07
2022-09-28T13:49:25.140Z,2.50
2022-09-28T13:52:05.440Z,3.37
2022-09-28T13:54:46.866Z,2.77
2022-09-28T13:57:23.982Z,3.00
2022-09-28T13:59:59.544Z,2.73
2022-09-28T14:02:32.887Z,2.93
2022-09-28T14:05:01.768Z,2.77
2022-09-28T14:07:57.337Z,3.07
2022-09-28T14:10:25.856Z,2.50
2022-09-28T14:12:54.255Z,2.60
2022-09-28T14:15:44.993Z,2.57
2022-09-28T14:18:21.025Z,2.70
2022-09-28T14:21:08.045Z,2.90
2022-09-28T14:23:50.552Z,2.37
2022-09-28T14:26:41.741Z,2.60
2022-09-28T14:29:16.727Z,2.47
2022-09-28T14:31:46.037Z,2.40
2022-09-28T14:34:33.118Z,2.20
2022-09-28T14:37:18.917Z,2.50
2022-09-28T14:40:04.536Z,2.53
2022-09-28T14:42:32.524Z,2.60
2022-09-28T14:45:19.990Z,2.77
2022-09-28T14:48:12.242Z,2.47
2022-09-28T14:50:40.377Z,2.20
2022-09-28T14:53:12.083Z,2.30
2022-09-28T14:55:44.178Z,2.10
2022-09-28T14:58:16.579Z,2.40
2022-09-28T15:00:44.676Z,2.40
2022-09-28T15:03:14.017Z,2.17
2022-09-28T15:05:43.967Z,2.70
2022-09-28T15:08:12.348Z,2.00
2022-09-28T15:10:42.592Z,2.20
2022-09-28T15:13:20.738Z,2.13
2022-09-28T15:15:50.456Z,2.50
2022-09-28T15:18:48.854Z,2.40
2022-09-28T15:21:16.762Z,2.30
2022-09-28T15:23:45.319Z,1.90
2022-09-28T15:26:22.927Z,1.90
2022-09-28T15:28:51.032Z,2.27
2022-09-28T15:31:19.710Z,2.47
2022-09-28T15:34:06.794Z,2.27
2022-09-28T15:36:36.242Z,2.00
2022-09-28T15:39:04.986Z,1.90
2022-09-28T15:41:32.894Z,2.10
2022-09-28T15:44:09.414Z,1.90
2022-09-28T15:46:38.851Z,2.00
2022-09-28T15:49:08.487Z,2.00
2022-09-28T15:51:47.016Z,1.90
2022-09-28T15:54:19.277Z,1.80
2022-09-28T15:56:59.821Z,1.83
2022-09-28T15:59:31.714Z,2.00
2022-09-28T16:02:08.108Z,2.00
2022-09-28T16:04:39.256Z,1.70
2022-09-28T16:07:19.461Z,1.83
2022-09-28T16:09:58.439Z,1.83
2022-09-28T16:12:31.770Z,2.07
2022-09-28T16:15:00.811Z,1.87
2022-09-28T16:17:32.674Z,1.77
2022-09-28T16:20:03.116Z,1.73
2022-09-28T16:22:32.505Z,1.97
2022-09-28T16:25:00.785Z,1.60
2022-09-28T16:27:30.135Z,1.70
2022-09-28T16:30:14.783Z,1.90
2022-09-28T16:32:49.550Z,1.90
2022-09-28T16:35:25.379Z,2.03
2022-09-28T16:37:59.177Z,2.00
2022-09-28T16:40:27.258Z,1.70
2022-09-28T16:42:56.123Z,1.77
2022-09-28T16:45:24.205Z,1.77
2022-09-28T16:47:53.023Z,1.70
2022-09-28T16:50:22.789Z,2.10
2022-09-28T16:53:08.603Z,2.10
2022-09-28T16:55:40.451Z,2.00
2022-09-28T16:58:08.924Z,2.27
2022-09-28T17:00:36.880Z,2.13
2022-09-28T17:03:12.152Z,2.53
2022-09-28T17:05:41.434Z,2.83
2022-09-28T17:08:11.061Z,3.10
2022-09-28T17:11:02.644Z,2.70
2022-09-28T17:13:33.158Z,2.70
2022-09-28T17:16:01.636Z,2.90
2022-09-28T17:18:31.695Z,3.20
2022-09-28T17:21:04.334Z,3.47
2022-09-28T17:23:32.531Z,3.37
2022-09-28T17:26:00.447Z,3.40
2022-09-28T17:28:31.283Z,2.80
2022-09-28T17:30:59.221Z,2.87
2022-09-28T17:33:27.250Z,3.20
2022-09-28T17:36:00.346Z,3.80
2022-09-28T17:38:28.301Z,3.10
2022-09-28T17:40:56.279Z,3.20
2022-09-28T17:43:24.280Z,3.33
2022-09-28T17:45:52.273Z,3.43
2022-09-28T17:48:24.217Z,3.87
2022-09-28T17:50:52.116Z,3.23
2022-09-28T17:53:21.368Z,3.60
2022-09-28T17:55:49.262Z,3.20
2022-09-28T17:58:18.270Z,3.30
2022-09-28T18:00:46.891Z,3.53
2022-09-28T18:03:16.288Z,3.67
2022-09-28T18:05:44.669Z,3.60
2022-09-28T18:08:13.964Z,3.53
2022-09-28T18:10:43.250Z,3.67
2022-09-28T18:13:11.445Z,3.37
2022-09-28T18:15:39.371Z,3.60
2022-09-28T18:18:09.418Z,3.63
2022-09-28T18:20:37.445Z,3.67
2022-09-28T18:23:05.528Z,3.70
2022-09-28T18:25:33.441Z,3.90
2022-09-28T18:28:02.788Z,4.10
2022-09-28T18:30:31.040Z,3.60
2022-09-28T18:32:58.921Z,4.13
2022-09-28T18:35:26.792Z,3.70
2022-09-28T18:37:54.666Z,3.83
2022-09-28T18:40:22.690Z,3.67
2022-09-28T18:42:50.921Z,3.83
2022-09-28T18:45:20.232Z,4.13
2022-09-28T18:47:48.114Z,4.27
2022-09-28T18:50:16.251Z,4.00
2022-09-28T18:52:44.361Z,3.90
2022-09-28T18:55:12.526Z,4.13
2022-09-28T18:57:41.186Z,3.93
2022-09-28T19:00:10.563Z,4.23
2022-09-28T19:02:39.928Z,3.80
2022-09-28T19:05:08.640Z,3.87
2022-09-28T19:07:36.612Z,3.83
2022-09-28T19:10:04.991Z,4.10
2022-09-28T19:12:33.621Z,4.30
2022-09-28T19:15:01.535Z,4.37
2022-09-28T19:17:29.718Z,4.37
2022-09-28T19:19:58.947Z,4.70
2022-09-28T19:22:26.914Z,4.47
2022-09-28T19:24:55.125Z,4.60
2022-09-28T19:27:23.020Z,4.67
2022-09-28T19:29:50.898Z,4.30
2022-09-28T19:32:18.778Z,4.70
2022-09-28T19:34:46.664Z,4.50
2022-09-28T19:37:15.925Z,4.60
2022-09-28T19:39:45.303Z,4.30
2022-09-28T19:42:13.225Z,4.37
2022-09-28T19:44:41.115Z,4.60
2022-09-28T19:47:09.971Z,4.10
2022-09-28T19:49:38.915Z,4.17
2022-09-28T19:52:13.385Z,4.30
2022-09-28T19:54:44.864Z,4.20
2022-09-28T19:57:14.362Z,4.10
2022-09-28T19:59:42.348Z,4.23
2022-09-28T20:02:11.966Z,4.27
2022-09-28T20:04:39.944Z,4.53
2022-09-28T20:07:07.809Z,4.43
2022-09-28T20:09:35.706Z,4.37
2022-09-28T20:12:05.280Z,3.93
2022-09-28T20:14:38.036Z,4.50
2022-09-28T20:17:08.189Z,4.17
2022-09-28T20:19:36.138Z,4.00
2022-09-28T20:22:04.163Z,4.27
2022-09-28T20:24:32.165Z,4.27
2022-09-28T20:27:01.264Z,4.03
2022-09-28T20:29:33.043Z,4.33
2022-09-28T20:32:01.096Z,4.40
2022-09-28T20:34:29.021Z,4.00
2022-09-28T20:36:56.930Z,4.57
2022-09-28T20:39:24.829Z,4.50
2022-09-28T20:41:53.474Z,4.10
2022-09-28T20:44:21.542Z,4.20
2022-09-28T20:46:52.279Z,4.30
2022-09-28T20:49:20.169Z,4.33
2022-09-28T20:51:48.076Z,4.17
2022-09-28T20:54:15.938Z,3.93
2022-09-28T20:56:43.876Z,4.70
2022-09-28T20:59:12.751Z,4.27
2022-09-28T21:01:40.911Z,4.53
2022-09-28T21:04:10.543Z,4.40
2022-09-28T21:06:39.287Z,4.50
2022-09-28T21:09:07.912Z,3.87
2022-09-28T21:11:36.382Z,4.13
2022-09-28T21:14:06.933Z,4.60
2022-09-28T21:16:35.354Z,4.37
2022-09-28T21:19:03.432Z,3.93
2022-09-28T21:21:32.787Z,4.37
2022-09-28T21:24:00.716Z,4.40
2022-09-28T21:26:29.339Z,4.60
2022-09-28T21:28:58.500Z,4.23
2022-09-28T21:31:29.068Z,4.63
2022-09-28T21:33:57.481Z,4.40
2022-09-28T21:36:25.444Z,4.47
2022-09-28T21:38:56.006Z,4.50
2022-09-28T21:41:23.977Z,4.60
2022-09-28T21:43:51.931Z,4.00
2022-09-28T21:46:19.835Z,4.37
2022-09-28T21:48:51.338Z,4.30
2022-09-28T21:51:19.422Z,3.70
2022-09-28T21:53:48.456Z,4.50
2022-09-28T21:56:17.719Z,4.60
2022-09-28T21:58:45.601Z,4.00
2022-09-28T22:01:14.672Z,4.10
2022-09-28T22:03:43.889Z,4.30
2022-09-28T22:06:12.074Z,4.30
2022-09-28T22:08:40.197Z,4.27
2022-09-28T22:11:08.862Z,3.70
2022-09-28T22:13:41.886Z,4.13
2022-09-28T22:16:09.855Z,3.80
2022-09-28T22:18:37.888Z,3.90
2022-09-28T22:21:07.401Z,4.20
2022-09-28T22:23:35.706Z,4.27
2022-09-28T22:26:04.858Z,3.70
2022-09-28T22:28:32.807Z,4.00
2022-09-28T22:31:02.136Z,3.93
2022-09-28T22:33:30.092Z,4.17
2022-09-28T22:35:57.965Z,4.10
2022-09-28T22:38:25.880Z,4.27
2022-09-28T22:40:54.950Z,4.57
2022-09-28T22:43:23.269Z,4.10
2022-09-28T22:45:51.210Z,3.60
2022-09-28T22:48:20.423Z,3.87
2022-09-28T22:50:51.696Z,4.10
2022-09-28T22:53:19.581Z,3.60
2022-09-28T22:55:47.454Z,3.90
2022-09-28T22:58:15.374Z,4.20
2022-09-28T23:00:44.440Z,4.30
2022-09-28T23:03:12.450Z,3.60
2022-09-28T23:05:41.762Z,3.87
2022-09-28T23:08:10.495Z,3.70
2022-09-28T23:10:38.351Z,3.97
2022-09-28T23:13:06.266Z,3.77
2022-09-28T23:15:34.168Z,4.40
2022-09-28T23:18:02.478Z,3.50
2022-09-28T23:20:30.365Z,3.50
2022-09-28T23:22:59.588Z,3.40
2022-09-28T23:25:29.003Z,3.60
2022-09-28T23:27:56.877Z,3.63
2022-09-28T23:30:24.813Z,3.57
2022-09-28T23:32:53.119Z,3.93
2022-09-28T23:35:21.032Z,3.97
2022-09-28T23:37:51.647Z,4.10
2022-09-28T23:40:20.909Z,3.77
2022-09-28T23:42:48.780Z,3.40
2022-09-28T23:45:16.780Z,3.40
2022-09-28T23:47:44.638Z,3.87
2022-09-28T23:50:12.516Z,4.03
2022-09-28T23:52:40.349Z,3.60
2022-09-28T23:55:09.075Z,3.70
2022-09-28T23:57:40.483Z,3.67
